Time;durP1;ratioP1;P1;durP2;ratioP2;P2;SDS_P1;SDS_P2;PMS_P1;PMS_P2;Temp;Humidity;BMP_temperature;BMP_pressure;BME280_temperature;BME280_humidity;BME280_pressure;Samples;Min_cycle;Max_cycle;Signal;HPM_P1;HPM_P2
2021/01/02 00:02:00;;;;;;;54.50;27.25;;;14.20;64.70;;;;;;5008710;28;20038;-76
2021/01/02 00:04:40;;;;;;;51.35;24.77;;;14.30;64.70;;;;;;5021279;28;20044;-76
2021/01/02 00:07:41;;;;;;;53.30;24.15;;;14.30;64.70;;;;;;5023056;28;20053;-78
2021/01/02 00:10:09;;;;;;;53.13;25.35;;;14.20;64.70;;;;;;5022992;28;20036;-75
2021/01/02 00:12:47;;;;;;;;;;;14.20;64.80;;;;;;5029393;28;20072;-75
2021/01/02 00:15:22;;;;;;;50.00;25.38;;;14.20;64.70;;;;;;5022109;28;20378;-78
2021/01/02 00:17:53;;;;;;;48.00;22.85;;;14.20;64.70;;;;;;5028168;28;20037;-76
2021/01/02 00:20:50;;;;;;;52.17;25.80;;;14.20;64.80;;;;;;5027930;28;20072;-76
2021/01/02 00:23:23;;;;;;;46.83;24.13;;;14.30;64.80;;;;;;5024088;28;20140;-75
2021/01/02 00:26:18;;;;;;;50.60;24.58;;;14.20;64.80;;;;;;5028251;28;20033;-75
2021/01/02 00:28:48;;;;;;;50.97;23.83;;;14.30;64.80;;;;;;5008308;28;20050;-75
2021/01/02 00:31:19;;;;;;;50.13;24.80;;;14.20;64.80;;;;;;5028939;28;20053;-76
2021/01/02 00:34:10;;;;;;;44.85;23.08;;;14.30;64.80;;;;;;5028563;28;20038;-75
2021/01/02 00:37:20;;;;;;;52.75;25.83;;;14.20;64.80;;;;;;5024227;28;20034;-76
2021/01/02 00:40:20;;;;;;;50.67;24.08;;;14.20;64.80;;;;;;5021521;28;20495;-76
2021/01/02 00:42:59;;;;;;;49.88;23.17;;;14.30;64.80;;;;;;5004254;28;20116;-76
2021/01/02 00:45:32;;;;;;;47.28;22.23;;;14.20;64.80;;;;;;5023595;28;20036;-76
2021/01/02 00:48:15;;;;;;;53.42;25.60;;;14.20;64.80;;;;;;5008960;28;20459;-74
2021/01/02 00:50:47;;;;;;;51.63;24.30;;;14.20;64.80;;;;;;5026543;28;20490;-76
2021/01/02 00:53:58;;;;;;;54.30;26.38;;;14.30;64.80;;;;;;5006565;28;20074;-76
2021/01/02 00:56:34;;;;;;;48.85;23.25;;;14.20;64.80;;;;;;5028751;28;20025;-75
2021/01/02 00:59:52;;;;;;;45.78;24.15;;;14.30;64.90;;;;;;5010855;28;20303;-78
2021/01/02 01:02:28;;;;;;;46.38;23.98;;;14.20;64.90;;;;;;5023459;28;20061;-76
2021/01/02 01:05:27;;;;;;;50.05;23.25;;;14.20;64.90;;;;;;5027826;28;20041;-76
2021/01/02 01:08:01;;;;;;;51.42;24.60;;;14.20;64.90;;;;;;5012580;28;20049;-78
2021/01/02 01:10:46;;;;;;;47.10;24.13;;;14.20;64.90;;;;;;5025383;28;20037;-75
2021/01/02 01:13:20;;;;;;;50.22;24.17;;;14.20;64.90;;;;;;5044793;28;20029;-76
2021/01/02 01:15:46;;;;;;;53.55;26.42;;;14.20;64.90;;;;;;5044601;28;20513;-75
2021/01/02 01:18:17;;;;;;;48.33;24.08;;;14.20;64.90;;;;;;5048608;28;20025;-75
2021/01/02 01:21:06;;;;;;;47.42;23.65;;;14.20;64.90;;;;;;5046469;28;20021;-75
2021/01/02 01:24:03;;;;;;;47.38;22.63;;;14.20;64.90;;;;;;5021902;28;20025;-75
2021/01/02 01:26:56;;;;;;;43.58;22.77;;;14.20;64.90;;;;;;5047272;28;20096;-74
2021/01/02 01:29:39;;;;;;;46.05;24.23;;;14.20;65.00;;;;;;5050059;28;20453;-75
2021/01/02 01:32:17;;;;;;;45.80;22.23;;;14.20;64.90;;;;;;5031455;28;20032;-76
2021/01/02 01:34:48;;;;;;;43.13;21.80;;;14.20;64.90;;;;;;5048595;28;20035;-75
2021/01/02 01:37:16;;;;;;;43.45;21.65;;;14.20;64.90;;;;;;5028830;28;20033;-75
2021/01/02 01:39:52;;;;;;;50.35;24.52;;;14.20;64.90;;;;;;5034024;28;20111;-76
2021/01/02 01:42:22;;;;;;;44.53;22.95;;;14.20;64.90;;;;;;5046587;28;20036;-75
2021/01/02 01:45:12;;;;;;;51.25;23.83;;;14.20;64.90;;;;;;5034209;28;20037;-75
2021/01/02 01:47:56;;;;;;;46.50;22.13;;;14.20;64.90;;;;;;5051526;28;20021;-74
2021/01/02 01:50:25;;;;;;;45.70;22.98;;;14.20;64.90;;;;;;5029685;28;20029;-75
2021/01/02 01:53:19;;;;;;;47.70;24.38;;;14.20;64.90;;;;;;5047155;28;20137;-75
2021/01/02 01:55:59;;;;;;;44.17;22.27;;;14.20;65.00;;;;;;5030861;28;20367;-76
2021/01/02 01:58:45;;;;;;;43.33;22.67;;;14.20;65.00;;;;;;5032613;28;20040;-75
2021/01/02 02:01:22;;;;;;;45.65;22.25;;;14.20;65.00;;;;;;5045074;28;20033;-75
2021/01/02 02:04:25;;;;;;;53.33;23.92;;;14.20;65.00;;;;;;5032820;28;20124;-74
2021/01/02 02:07:00;;;;;;;43.40;22.05;;;14.20;65.00;;;;;;5024217;28;20371;-75
2021/01/02 02:09:48;;;;;;;46.78;24.38;;;14.20;65.00;;;;;;5048437;28;20025;-76
2021/01/02 02:12:17;;;;;;;47.67;22.42;;;14.20;65.00;;;;;;5044906;28;20021;-76
2021/01/02 02:14:55;;;;;;;49.83;24.33;;;14.20;65.00;;;;;;5050742;28;20462;-75
2021/01/02 02:17:34;;;;;;;48.78;22.70;;;14.20;65.00;;;;;;5043289;28;20037;-75
2021/01/02 02:20:18;;;;;;;46.20;21.90;;;14.20;65.00;;;;;;5044834;28;20131;-76
2021/01/02 02:22:59;;;;;;;49.70;23.83;;;14.20;65.00;;;;;;5025945;28;20021;-75
2021/01/02 02:25:35;;;;;;;41.00;20.75;;;14.20;65.00;;;;;;5025639;28;20030;-77
2021/01/02 02:28:12;;;;;;;47.30;23.80;;;14.20;65.00;;;;;;5029437;28;20385;-74
2021/01/02 02:30:45;;;;;;;44.73;22.93;;;14.20;65.00;;;;;;5049549;28;20402;-75
2021/01/02 02:33:16;;;;;;;46.80;22.67;;;14.20;65.00;;;;;;5033229;28;20041;-74
2021/01/02 02:36:01;;;;;;;47.35;22.38;;;14.20;65.00;;;;;;5050532;28;20032;-74
2021/01/02 02:38:27;;;;;;;44.83;22.42;;;14.20;65.00;;;;;;5049026;28;20032;-75
2021/01/02 02:40:57;;;;;;;39.33;21.92;;;14.20;65.00;;;;;;5051920;28;20467;-75
2021/01/02 02:43:39;;;;;;;39.65;21.02;;;14.20;65.00;;;;;;5031891;28;20033;-75
2021/01/02 02:46:22;;;;;;;38.35;20.50;;;14.20;65.00;;;;;;5049830;28;20052;-76
2021/01/02 02:48:54;;;;;;;42.95;22.58;;;14.20;65.00;;;;;;5040481;28;20033;-75
2021/01/02 02:51:20;;;;;;;40.28;21.05;;;14.30;65.00;;;;;;5051352;28;20053;-75
2021/01/02 02:53:54;;;;;;;38.17;20.48;;;14.20;65.00;;;;;;5027581;28;20029;-75
2021/01/02 02:56:24;;;;;;;42.28;21.20;;;14.20;65.00;;;;;;5046973;28;20028;-76
2021/01/02 02:58:52;;;;;;;43.20;21.05;;;14.30;65.00;;;;;;5047370;28;20083;-75
2021/01/02 03:01:18;;;;;;;40.55;21.60;;;14.20;65.00;;;;;;5032601;28;20040;-74
2021/01/02 03:03:44;;;;;;;41.35;20.55;;;14.20;65.00;;;;;;5050526;28;20039;-77
2021/01/02 03:06:13;;;;;;;41.30;21.00;;;14.20;65.10;;;;;;5031882;28;20033;-75
2021/01/02 03:08:43;;;;;;;43.30;21.23;;;14.20;65.10;;;;;;5049015;28;20041;-75
2021/01/02 03:11:10;;;;;;;40.63;20.70;;;14.20;65.10;;;;;;5026628;28;20531;-78
2021/01/02 03:13:46;;;;;;;43.67;22.08;;;14.20;65.00;;;;;;5043077;28;20540;-76
2021/01/02 03:16:16;;;;;;;39.30;20.92;;;14.20;65.00;;;;;;5029617;28;20039;-75
2021/01/02 03:18:56;;;;;;;38.67;19.88;;;14.20;65.10;;;;;;5046706;28;20025;-75
2021/01/02 03:21:34;;;;;;;42.10;20.70;;;14.20;65.00;;;;;;5049341;28;20124;-74
2021/01/02 03:24:10;;;;;;;40.97;21.65;;;14.20;65.10;;;;;;5050304;28;20025;-75
2021/01/02 03:26:48;;;;;;;39.85;20.23;;;14.20;65.00;;;;;;5050122;28;20044;-75
2021/01/02 03:29:17;;;;;;;36.55;20.63;;;14.20;65.00;;;;;;5046931;28;20024;-75
2021/01/02 03:31:43;;;;;;;39.17;20.00;;;14.20;65.00;;;;;;5051160;28;20575;-77
2021/01/02 03:34:08;;;;;;;38.92;20.10;;;14.20;65.10;;;;;;5048679;28;20029;-75
2021/01/02 03:36:39;;;;;;;39.50;19.98;;;14.20;65.10;;;;;;5046372;28;20517;-75
2021/01/02 03:39:07;;;;;;;39.38;21.25;;;14.20;65.00;;;;;;5049623;28;20025;-74
2021/01/02 03:41:38;;;;;;;44.00;21.05;;;14.20;65.00;;;;;;5046669;28;20505;-78
2021/01/02 03:44:08;;;;;;;44.08;21.02;;;14.20;65.00;;;;;;5050072;28;20096;-77
2021/01/02 03:46:42;;;;;;;41.70;20.65;;;14.20;65.10;;;;;;5049000;28;20120;-74
2021/01/02 03:49:08;;;;;;;38.05;20.73;;;14.20;65.10;;;;;;5039086;28;20064;-78
2021/01/02 03:51:38;;;;;;;36.33;20.20;;;14.20;65.10;;;;;;5048177;28;20049;-76
2021/01/02 03:54:09;;;;;;;40.83;20.77;;;14.20;65.10;;;;;;5048707;28;20029;-75
2021/01/02 03:56:50;;;;;;;37.13;20.58;;;14.20;65.10;;;;;;5049106;28;20029;-75
2021/01/02 03:59:20;;;;;;;37.83;19.35;;;14.20;65.10;;;;;;5049531;28;20442;-75
2021/01/02 04:02:12;;;;;;;40.15;19.88;;;14.20;65.10;;;;;;5048821;28;20035;-75
2021/01/02 04:04:41;;;;;;;40.97;20.25;;;14.20;65.10;;;;;;5049103;28;20441;-75
2021/01/02 04:07:11;;;;;;;40.50;19.95;;;14.20;65.10;;;;;;5049234;28;20080;-75
2021/01/02 04:09:42;;;;;;;40.60;19.70;;;14.20;65.10;;;;;;5027835;28;20029;-75
2021/01/02 04:12:07;;;;;;;39.83;19.90;;;14.20;65.10;;;;;;5013128;28;20052;-75
2021/01/02 04:14:58;;;;;;;42.85;19.73;;;14.20;65.10;;;;;;5029142;28;20415;-76
2021/01/02 04:17:30;;;;;;;34.53;19.38;;;14.20;65.10;;;;;;5023638;28;20091;-76
2021/01/02 04:20:00;;;;;;;37.67;20.05;;;14.20;65.10;;;;;;5026948;28;20541;-76
2021/01/02 04:22:33;;;;;;;38.60;19.17;;;14.30;65.10;;;;;;5012288;28;20107;-75
2021/01/02 04:25:06;;;;;;;36.38;18.83;;;14.20;65.10;;;;;;5028252;28;20032;-75
2021/01/02 04:27:31;;;;;;;37.35;18.92;;;14.20;65.10;;;;;;5030483;28;20684;-76
2021/01/02 04:30:03;;;;;;;35.22;19.23;;;14.20;65.10;;;;;;5030419;28;20029;-75
2021/01/02 04:32:33;;;;;;;36.88;19.98;;;14.20;65.20;;;;;;5028874;28;20028;-75
2021/01/02 04:35:04;;;;;;;36.45;19.05;;;14.20;65.10;;;;;;5028891;28;20028;-76
2021/01/02 04:37:43;;;;;;;38.08;20.90;;;14.20;65.10;;;;;;5028238;28;20446;-76
2021/01/02 04:40:23;;;;;;;37.50;18.80;;;14.20;65.10;;;;;;5004855;28;20029;-75
2021/01/02 04:43:04;;;;;;;33.47;18.08;;;14.20;65.10;;;;;;5026187;28;20382;-75
2021/01/02 04:45:44;;;;;;;35.83;19.15;;;14.20;65.10;;;;;;5028589;28;20116;-75
2021/01/02 04:48:14;;;;;;;37.83;19.67;;;14.20;65.10;;;;;;5030016;28;20090;-76
2021/01/02 04:50:55;;;;;;;37.13;19.17;;;14.20;65.10;;;;;;5028982;28;20026;-75
2021/01/02 04:53:29;;;;;;;35.17;17.85;;;14.20;65.20;;;;;;5021107;28;20026;-75
2021/01/02 04:56:08;;;;;;;34.05;17.30;;;14.20;65.20;;;;;;5027807;28;20025;-75
2021/01/02 04:58:50;;;;;;;33.58;18.58;;;14.20;65.20;;;;;;5030221;28;20108;-75
2021/01/02 05:01:21;;;;;;;34.53;17.35;;;14.20;65.20;;;;;;5027417;28;20104;-75
2021/01/02 05:03:52;;;;;;;35.50;18.85;;;14.20;65.20;;;;;;5012809;28;20037;-80
2021/01/02 05:06:22;;;;;;;39.35;20.67;;;14.20;65.20;;;;;;5030518;28;20076;-74
2021/01/02 05:09:00;;;;;;;36.85;17.98;;;14.20;65.20;;;;;;5026880;28;20033;-76
2021/01/02 05:11:40;;;;;;;38.38;19.63;;;14.20;65.20;;;;;;5032208;28;20099;-74
2021/01/02 05:14:11;;;;;;;36.88;18.92;;;14.20;65.20;;;;;;5014772;28;20088;-75
2021/01/02 05:16:38;;;;;;;38.38;19.88;;;14.20;65.20;;;;;;5032084;28;20033;-74
2021/01/02 05:19:15;;;;;;;32.93;18.73;;;14.20;65.20;;;;;;5011390;28;20414;-75
2021/01/02 05:21:48;;;;;;;37.72;19.23;;;14.20;65.20;;;;;;5020556;28;20032;-73
2021/01/02 05:24:29;;;;;;;36.00;18.23;;;14.20;65.20;;;;;;5018169;28;20040;-74
2021/01/02 05:27:02;;;;;;;35.55;18.42;;;14.20;65.20;;;;;;5028652;28;20025;-74
2021/01/02 05:29:32;;;;;;;34.50;19.10;;;14.20;65.20;;;;;;5029151;28;20025;-75
2021/01/02 05:32:12;;;;;;;35.15;18.63;;;14.20;65.20;;;;;;5024790;28;20471;-74
2021/01/02 05:34:45;;;;;;;37.50;18.05;;;14.20;65.20;;;;;;5024169;28;20236;-73
2021/01/02 05:37:26;;;;;;;31.90;17.10;;;14.20;65.30;;;;;;5031456;28;20036;-73
2021/01/02 05:39:56;;;;;;;35.85;17.95;;;14.20;65.20;;;;;;5008975;28;20033;-75
2021/01/02 05:42:38;;;;;;;32.55;18.63;;;14.20;65.30;;;;;;5031504;28;20068;-73
2021/01/02 05:45:11;;;;;;;37.67;19.50;;;14.20;65.30;;;;;;5028228;28;20033;-74
2021/01/02 05:47:43;;;;;;;31.23;18.13;;;14.20;65.30;;;;;;5012216;28;20029;-74
2021/01/02 05:50:15;;;;;;;33.38;17.92;;;14.20;65.30;;;;;;5030783;28;20084;-75
2021/01/02 05:52:49;;;;;;;36.50;18.70;;;14.20;65.30;;;;;;5030568;28;20053;-73
2021/01/02 05:55:30;;;;;;;30.88;17.15;;;14.20;65.30;;;;;;5029453;28;20379;-75
2021/01/02 05:58:14;;;;;;;35.05;19.15;;;14.10;65.30;;;;;;5031167;28;20033;-74
2021/01/02 06:00:46;;;;;;;34.92;17.77;;;14.20;65.30;;;;;;5031464;28;20150;-73
2021/01/02 06:03:38;;;;;;;34.58;18.83;;;14.20;65.30;;;;;;5029679;28;20036;-73
2021/01/02 06:06:26;;;;;;;30.15;16.92;;;14.20;65.30;;;;;;5020083;28;20029;-74
2021/01/02 06:08:51;;;;;;;34.35;17.38;;;14.10;65.30;;;;;;5049221;28;20041;-74
2021/01/02 06:11:26;;;;;;;32.28;17.90;;;14.10;65.40;;;;;;5051155;28;20382;-74
2021/01/02 06:13:56;;;;;;;31.92;17.88;;;14.10;65.40;;;;;;5049883;28;20116;-74
2021/01/02 06:16:42;;;;;;;30.55;16.80;;;14.20;65.40;;;;;;5044980;28;20026;-74
2021/01/02 06:19:11;;;;;;;31.20;16.83;;;14.20;65.40;;;;;;5047968;28;20107;-73
2021/01/02 06:21:37;;;;;;;32.42;17.77;;;14.10;65.40;;;;;;5046185;28;20057;-74
2021/01/02 06:24:08;;;;;;;31.90;16.52;;;14.10;65.40;;;;;;5029357;28;20068;-74
2021/01/02 06:26:49;;;;;;;34.95;17.23;;;14.10;65.40;;;;;;5050660;28;20104;-75
2021/01/02 06:29:36;;;;;;;30.17;16.95;;;14.10;65.40;;;;;;5050575;28;20471;-76
2021/01/02 06:32:07;;;;;;;37.30;19.13;;;14.20;65.40;;;;;;5028434;28;20075;-74
2021/01/02 06:34:37;;;;;;;33.30;17.42;;;14.20;65.40;;;;;;5048857;28;20578;-74
2021/01/02 06:37:07;;;;;;;28.98;15.90;;;14.10;65.40;;;;;;5049303;28;20037;-75
2021/01/02 06:39:34;;;;;;;32.75;17.67;;;14.10;65.40;;;;;;5046759;28;20385;-74
2021/01/02 06:42:04;;;;;;;28.90;15.50;;;14.20;65.40;;;;;;5032024;28;20474;-74
2021/01/02 06:44:55;;;;;;;32.53;17.27;;;14.10;65.40;;;;;;5049273;28;20088;-75
2021/01/02 06:47:31;;;;;;;30.45;16.73;;;14.10;65.40;;;;;;5049952;28;20036;-74
2021/01/02 06:50:19;;;;;;;31.00;16.48;;;14.10;65.40;;;;;;5049024;28;20473;-75
2021/01/02 06:52:51;;;;;;;30.55;16.95;;;14.20;65.40;;;;;;5045343;28;20099;-74
2021/01/02 06:55:20;;;;;;;29.30;16.13;;;14.20;65.40;;;;;;5030489;28;20034;-74
2021/01/02 06:57:50;;;;;;;31.80;17.10;;;14.10;65.40;;;;;;5031241;28;20025;-74
2021/01/02 07:00:36;;;;;;;34.10;17.33;;;14.20;65.40;;;;;;5031392;28;20030;-76
2021/01/02 07:03:03;;;;;;;30.85;16.40;;;14.20;65.40;;;;;;5041399;28;20053;-73
2021/01/02 07:05:48;;;;;;;30.02;16.25;;;14.20;65.40;;;;;;5026521;28;20036;-74
2021/01/02 07:08:42;;;;;;;32.42;17.33;;;14.10;65.40;;;;;;5048488;28;20049;-74
2021/01/02 07:11:33;;;;;;;31.10;17.08;;;14.10;65.40;;;;;;5042895;28;20025;-74
2021/01/02 07:14:24;;;;;;;28.63;14.75;;;14.10;65.40;;;;;;5029722;28;20060;-73
2021/01/02 07:17:00;;;;;;;29.25;16.45;;;14.20;65.40;;;;;;5047879;28;20462;-73
2021/01/02 07:22:11;;;;;;;28.40;15.63;;;14.20;65.40;;;;;;5048724;28;20033;-73
2021/01/02 07:24:57;;;;;;;32.00;16.05;;;14.20;65.50;;;;;;5037954;28;20055;-75
2021/01/02 07:27:39;;;;;;;24.80;14.55;;;14.20;65.40;;;;;;5044112;28;20120;-74
2021/01/02 07:30:20;;;;;;;27.55;14.85;;;14.20;65.40;;;;;;5048926;28;20378;-73
2021/01/02 07:33:00;;;;;;;32.40;16.38;;;14.10;65.40;;;;;;5047755;28;20561;-74
2021/01/02 07:35:35;;;;;;;32.55;16.00;;;14.20;65.40;;;;;;5046113;28;20033;-73
2021/01/02 07:38:07;;;;;;;29.77;16.38;;;14.20;65.40;;;;;;5027505;28;20662;-76
2021/01/02 07:40:36;;;;;;;31.60;15.40;;;14.20;65.40;;;;;;5046576;28;20031;-74
2021/01/02 07:43:07;;;;;;;29.05;16.25;;;14.20;65.40;;;;;;5046661;28;20128;-74
2021/01/02 07:45:41;;;;;;;28.75;15.65;;;14.20;65.40;;;;;;5028612;28;20029;-74
2021/01/02 07:48:35;;;;;;;28.70;15.32;;;14.10;65.40;;;;;;5027258;28;20326;-74
2021/01/02 07:51:21;;;;;;;29.85;15.38;;;14.20;65.40;;;;;;5047403;28;20466;-74
2021/01/02 07:53:58;;;;;;;27.23;15.80;;;14.20;65.30;;;;;;5047161;28;20033;-74
2021/01/02 07:56:37;;;;;;;29.00;15.13;;;14.20;65.30;;;;;;5030432;28;20025;-74
2021/01/02 07:59:37;;;;;;;34.05;16.20;;;14.20;65.30;;;;;;5045037;28;20101;-74
2021/01/02 08:02:09;;;;;;;27.23;15.65;;;14.20;65.40;;;;;;4986495;28;20041;-74
2021/01/02 08:04:40;;;;;;;27.73;15.50;;;14.20;65.40;;;;;;5046927;28;20083;-75
2021/01/02 08:07:17;;;;;;;29.92;16.05;;;14.20;65.30;;;;;;5027043;28;20531;-74
2021/01/02 08:09:48;;;;;;;27.35;14.57;;;14.20;65.40;;;;;;5045319;28;20368;-74
2021/01/02 08:12:21;;;;;;;29.35;15.63;;;14.20;65.30;;;;;;5048069;28;20096;-74
2021/01/02 08:14:51;;;;;;;28.02;15.45;;;14.20;65.30;;;;;;5048272;28;20095;-76
2021/01/02 08:17:42;;;;;;;28.38;15.77;;;14.20;65.30;;;;;;5022150;28;20072;-74
2021/01/02 08:20:09;;;;;;;24.75;14.82;;;14.20;65.30;;;;;;5041736;28;20389;-74
2021/01/02 08:22:40;;;;;;;24.08;14.25;;;14.20;65.30;;;;;;5047455;28;20029;-74
2021/01/02 08:25:26;;;;;;;27.75;15.35;;;14.20;65.30;;;;;;5030398;28;20032;-74
2021/01/02 08:27:56;;;;;;;27.23;14.40;;;14.20;65.30;;;;;;5041744;28;20025;-74
2021/01/02 08:30:26;;;;;;;25.10;14.48;;;14.20;65.30;;;;;;5020793;28;20033;-75
2021/01/02 08:32:59;;;;;;;24.38;14.65;;;14.20;65.30;;;;;;5047389;28;20063;-74
2021/01/02 08:35:36;;;;;;;26.48;14.15;;;14.20;65.30;;;;;;5048362;28;20025;-74
2021/01/02 08:38:12;;;;;;;24.35;14.35;;;14.20;65.30;;;;;;5034286;28;20021;-74
2021/01/02 08:40:47;;;;;;;27.45;15.55;;;14.20;65.20;;;;;;5027222;28;20025;-74
2021/01/02 08:43:30;;;;;;;22.83;14.15;;;14.20;65.30;;;;;;5037703;28;20032;-76
2021/01/02 08:46:13;;;;;;;26.73;14.65;;;14.20;65.20;;;;;;5021699;28;20057;-74
2021/01/02 08:48:46;;;;;;;26.48;14.40;;;14.20;65.20;;;;;;5047593;28;20028;-73
2021/01/02 08:51:25;;;;;;;28.98;15.45;;;14.20;65.20;;;;;;5047779;28;20025;-74
2021/01/02 08:53:51;;;;;;;26.50;14.48;;;14.20;65.20;;;;;;5035140;28;20455;-74
2021/01/02 08:56:30;;;;;;;24.73;13.98;;;14.20;65.20;;;;;;5040424;28;20025;-74
2021/01/02 08:59:11;;;;;;;27.63;14.70;;;14.30;65.10;;;;;;5047172;28;20517;-75
2021/01/02 09:01:38;;;;;;;23.83;13.80;;;14.20;65.10;;;;;;5030014;28;20033;-74
2021/01/02 09:04:16;;;;;;;26.58;14.48;;;14.20;65.10;;;;;;5034450;28;20107;-75
2021/01/02 09:06:55;;;;;;;21.70;13.27;;;14.20;65.10;;;;;;5057246;28;20091;-75
2021/01/02 09:09:25;;;;;;;25.02;13.60;;;14.30;65.10;;;;;;5039802;28;20511;-75
2021/01/02 09:11:57;;;;;;;26.08;14.95;;;14.30;65.10;;;;;;5057516;28;20035;-76
2021/01/02 09:14:27;;;;;;;24.88;14.68;;;14.30;65.10;;;;;;5057944;28;20033;-74
2021/01/02 09:17:07;;;;;;;23.65;13.60;;;14.30;65.10;;;;;;5042128;28;20052;-76
2021/01/02 09:19:33;;;;;;;28.45;15.20;;;14.30;65.10;;;;;;5057186;28;20041;-75
2021/01/02 09:22:16;;;;;;;27.55;14.30;;;14.30;65.10;;;;;;5050942;28;20057;-75
2021/01/02 09:24:41;;;;;;;22.85;14.15;;;14.30;65.10;;;;;;5058786;28;20580;-75
2021/01/02 09:27:19;;;;;;;22.70;12.90;;;14.30;65.00;;;;;;5057610;28;20024;-75
2021/01/02 09:29:50;;;;;;;27.40;15.52;;;14.30;65.10;;;;;;5036803;28;20025;-75
2021/01/02 09:32:27;;;;;;;23.73;14.05;;;14.30;65.10;;;;;;5048314;28;20033;-77
2021/01/02 09:34:57;;;;;;;26.88;15.45;;;14.20;65.10;;;;;;5054586;28;20047;-75
2021/01/02 09:37:28;;;;;;;24.48;13.45;;;14.30;65.10;;;;;;5038093;28;20036;-75
2021/01/02 09:40:18;;;;;;;27.52;13.15;;;14.30;65.10;;;;;;5048860;28;20067;-74
2021/01/02 09:42:48;;;;;;;22.48;13.35;;;14.30;65.20;;;;;;5038359;28;20033;-76
2021/01/02 09:45:14;;;;;;;23.02;13.38;;;14.30;65.10;;;;;;5054386;28;20044;-75
2021/01/02 09:47:41;;;;;;;27.95;13.73;;;14.30;65.20;;;;;;5055930;28;20037;-76
2021/01/02 09:50:19;;;;;;;25.30;13.70;;;14.20;65.20;;;;;;5052773;28;20112;-75
2021/01/02 09:52:59;;;;;;;;;;;14.20;65.20;;;;;;5050100;28;20036;-74
2021/01/02 09:55:57;;;;;;;27.67;12.13;;;14.30;66.50;;;;;;5048230;28;19917;-73
2021/01/02 09:58:30;;;;;;;25.77;13.68;;;14.30;65.20;;;;;;5029265;28;20040;-74
2021/01/02 10:01:02;;;;;;;25.30;12.25;;;14.30;65.20;;;;;;5046249;28;20025;-73
2021/01/02 10:03:27;;;;;;;21.45;13.13;;;14.30;65.20;;;;;;5045327;28;20034;-74
2021/01/02 10:06:07;;;;;;;24.67;12.75;;;14.30;65.30;;;;;;5033757;28;20116;-73
2021/01/02 10:08:32;;;;;;;27.42;13.13;;;14.30;65.30;;;;;;5050492;28;20056;-74
2021/01/02 10:11:03;;;;;;;23.35;12.65;;;14.30;65.80;;;;;;5030544;28;20025;-72
2021/01/02 10:13:33;;;;;;;27.92;13.10;;;14.30;65.50;;;;;;5045607;28;20033;-72
2021/01/02 10:16:04;;;;;;;33.63;13.77;;;14.40;65.40;;;;;;5043255;28;20072;-72
2021/01/02 10:18:35;;;;;;;26.50;12.70;;;14.30;65.30;;;;;;5046295;28;20036;-73
2021/01/02 10:21:12;;;;;;;27.70;12.35;;;14.30;65.30;;;;;;5049195;28;20056;-72
2021/01/02 10:23:42;;;;;;;21.98;11.88;;;14.30;65.20;;;;;;5048196;28;20056;-72
2021/01/02 10:26:08;;;;;;;27.42;11.25;;;14.30;65.10;;;;;;5040561;28;20029;-73
2021/01/02 10:28:41;;;;;;;28.60;11.65;;;14.30;65.20;;;;;;5051108;28;20032;-72
2021/01/02 10:31:17;;;;;;;22.70;11.48;;;14.30;65.10;;;;;;5048690;28;20029;-72
2021/01/02 10:33:47;;;;;;;25.25;12.10;;;14.30;65.10;;;;;;5049465;28;20029;-73
2021/01/02 10:36:48;;;;;;;21.65;11.50;;;14.30;65.00;;;;;;5037358;28;20030;-72
2021/01/02 10:39:14;;;;;;;22.00;11.85;;;14.30;65.00;;;;;;5027411;28;20025;-75
2021/01/02 10:41:51;;;;;;;22.92;12.05;;;14.30;65.00;;;;;;5039939;28;20035;-73
2021/01/02 10:44:22;;;;;;;26.90;10.90;;;14.30;65.00;;;;;;5033353;28;20040;-74
2021/01/02 10:46:59;;;;;;;19.52;10.40;;;14.30;64.90;;;;;;5042216;28;20025;-72
2021/01/02 10:49:34;;;;;;;20.88;10.25;;;14.30;64.80;;;;;;5049216;28;20047;-72
2021/01/02 10:52:00;;;;;;;22.10;10.82;;;14.30;64.70;;;;;;5050402;28;20035;-72
2021/01/02 10:54:33;;;;;;;20.23;11.20;;;14.30;64.70;;;;;;5042786;28;20037;-73
2021/01/02 10:57:00;;;;;;;18.27;10.07;;;14.30;64.60;;;;;;5016028;28;20049;-72
2021/01/02 10:59:34;;;;;;;21.35;10.40;;;14.30;64.60;;;;;;5047133;28;20051;-73
2021/01/02 11:02:25;;;;;;;19.92;10.65;;;14.30;64.50;;;;;;5042214;28;20030;-72
2021/01/02 11:04:54;;;;;;;19.65;10.75;;;14.30;64.50;;;;;;5048946;28;20088;-72
2021/01/02 11:07:23;;;;;;;21.30;9.98;;;14.30;64.40;;;;;;5012812;28;20046;-72
2021/01/02 11:09:55;;;;;;;20.55;9.95;;;14.30;64.40;;;;;;5038635;28;20025;-73
2021/01/02 11:12:22;;;;;;;19.17;9.57;;;14.30;64.40;;;;;;5054718;28;20477;-74
2021/01/02 11:14:49;;;;;;;20.23;9.77;;;14.30;64.40;;;;;;5048750;28;20513;-73
2021/01/02 11:17:21;;;;;;;17.30;9.80;;;14.30;64.30;;;;;;5050740;28;20052;-75
2021/01/02 11:20:04;;;;;;;16.17;9.32;;;14.30;64.30;;;;;;5031758;28;20112;-73
2021/01/02 11:22:32;;;;;;;20.85;10.98;;;14.30;64.30;;;;;;5024584;28;20073;-72
2021/01/02 11:25:07;;;;;;;17.98;10.20;;;14.30;64.30;;;;;;5048404;28;20079;-73
2021/01/02 11:27:34;;;;;;;20.02;9.68;;;14.30;64.20;;;;;;5045316;28;20040;-73
2021/01/02 11:30:05;;;;;;;14.10;8.60;;;14.30;64.20;;;;;;5043973;28;20033;-73
2021/01/02 11:32:47;;;;;;;16.42;9.15;;;14.30;64.20;;;;;;5038428;28;20516;-72
2021/01/02 11:35:14;;;;;;;15.50;9.02;;;14.30;64.10;;;;;;5044186;28;20029;-73
2021/01/02 11:37:43;;;;;;;16.10;8.93;;;14.30;64.10;;;;;;5037836;28;20036;-72
2021/01/02 11:40:16;;;;;;;17.05;9.05;;;14.30;64.10;;;;;;5040977;28;20574;-73
2021/01/02 11:42:47;;;;;;;16.52;8.15;;;14.30;64.10;;;;;;5026007;28;20021;-73
2021/01/02 11:45:22;;;;;;;15.00;8.80;;;14.30;64.00;;;;;;5026698;28;20346;-73
2021/01/02 11:47:51;;;;;;;15.82;8.75;;;14.30;64.00;;;;;;5040337;28;20028;-72
2021/01/02 11:50:33;;;;;;;14.90;8.63;;;14.30;63.90;;;;;;5031300;28;20608;-73
2021/01/02 11:52:59;;;;;;;14.25;8.38;;;14.30;63.90;;;;;;5047693;28;20025;-73
2021/01/02 11:55:27;;;;;;;18.08;8.48;;;14.30;63.80;;;;;;5030731;28;20105;-73
2021/01/02 11:57:59;;;;;;;;;;;14.30;63.70;;;;;;5045621;28;20022;-72
2021/01/02 12:00:25;;;;;;;15.07;7.88;;;14.30;63.70;;;;;;5043258;28;20390;-73
2021/01/02 12:02:56;;;;;;;18.38;7.93;;;14.30;63.70;;;;;;5043704;28;20686;-73
2021/01/02 12:05:44;;;;;;;12.30;7.05;;;14.30;63.70;;;;;;5048083;28;20029;-73
2021/01/02 12:08:16;;;;;;;;;;;14.30;63.70;;;;;;5049359;28;20056;-72
2021/01/02 12:10:48;;;;;;;14.68;8.38;;;14.30;63.80;;;;;;5031702;28;19967;-73
2021/01/02 12:13:17;;;;;;;18.25;8.52;;;14.30;63.90;;;;;;5030596;28;20029;-72
2021/01/02 12:15:54;;;;;;;18.38;8.40;;;14.30;63.80;;;;;;5030815;28;20481;-73
2021/01/02 12:18:25;;;;;;;22.55;9.52;;;14.30;63.80;;;;;;5045735;28;20550;-73
2021/01/02 12:21:01;;;;;;;25.75;11.30;;;14.30;63.80;;;;;;5047275;28;20025;-73
2021/01/02 12:23:32;;;;;;;21.83;11.57;;;14.30;63.80;;;;;;5020890;28;20037;-73
2021/01/02 12:26:09;;;;;;;27.55;13.07;;;14.30;63.90;;;;;;5045829;28;20032;-74
2021/01/02 12:29:08;;;;;;;27.73;13.93;;;14.30;64.00;;;;;;5043325;28;20052;-74
2021/01/02 12:31:50;;;;;;;37.30;13.30;;;14.30;64.10;;;;;;5027573;28;20056;-72
2021/01/02 12:34:28;;;;;;;30.80;14.65;;;14.30;64.10;;;;;;5047228;28;20032;-73
2021/01/02 12:36:59;;;;;;;27.40;13.65;;;14.30;64.00;;;;;;5041952;28;20467;-72
2021/01/02 12:39:33;;;;;;;27.80;13.23;;;14.30;63.90;;;;;;5030008;28;20390;-72
2021/01/02 12:42:10;;;;;;;26.33;13.07;;;14.30;63.90;;;;;;5047253;28;20025;-73
2021/01/02 12:44:41;;;;;;;32.58;13.68;;;14.30;63.70;;;;;;5029321;28;20037;-73
2021/01/02 12:47:27;;;;;;;31.40;13.65;;;14.30;63.70;;;;;;5044003;28;20021;-74
2021/01/02 12:50:09;;;;;;;27.80;13.20;;;14.30;63.70;;;;;;5029744;28;20059;-74
2021/01/02 12:52:50;;;;;;;31.92;14.43;;;14.30;63.70;;;;;;5023435;28;20029;-74
2021/01/02 12:55:26;;;;;;;32.80;13.45;;;14.30;64.80;;;;;;5047162;28;20498;-75
2021/01/02 12:57:56;;;;;;;39.63;14.35;;;14.30;64.80;;;;;;5041308;28;20099;-74
2021/01/02 13:00:45;;;;;;;37.97;15.13;;;14.30;64.90;;;;;;5025461;28;20181;-74
2021/01/02 13:03:11;;;;;;;31.17;14.40;;;14.30;64.90;;;;;;5029333;28;20083;-74
2021/01/02 13:05:44;;;;;;;37.90;15.75;;;14.40;64.90;;;;;;5048596;28;20033;-74
2021/01/02 13:08:13;;;;;;;36.03;14.48;;;14.40;65.00;;;;;;5047075;28;20060;-74
2021/01/02 13:10:41;;;;;;;33.72;14.63;;;14.40;65.00;;;;;;5039824;28;20044;-75
2021/01/02 13:13:17;;;;;;;39.28;15.90;;;14.40;65.10;;;;;;5026903;28;20393;-74
2021/01/02 13:15:50;;;;;;;47.42;15.40;;;14.40;65.10;;;;;;5042793;28;20688;-74